sensor_id;sensor_type;location;lat;lon;timestamp;P1;durP1;ratioP1;P2;durP2;ratioP2
20884;SDS011;10602;48.000;9.654;2023-08-12T03:00:28;4.87;;;4.43;;
20884;SDS011;10602;48.000;9.654;2023-08-12T03:02:55;5.37;;;4.53;;
20884;SDS011;10602;48.000;9.654;2023-08-12T03:05:23;5.80;;;5.00;;
20884;SDS011;10602;48.000;9.654;2023-08-12T03:07:53;7.57;;;4.57;;
20884;SDS011;10602;48.000;9.654;2023-08-12T03:10:20;5.33;;;4.10;;
20884;SDS011;10602;48.000;9.654;2023-08-12T03:12:48;7.50;;;4.97;;
20884;SDS011;10602;48.000;9.654;2023-08-12T03:15:17;4.60;;;4.03;;
20884;SDS011;10602;48.000;9.654;2023-08-12T03:17:45;5.90;;;4.70;;
20884;SDS011;10602;48.000;9.654;2023-08-12T03:20:15;5.83;;;4.87;;
20884;SDS011;10602;48.000;9.654;2023-08-12T03:22:42;5.33;;;4.83;;
20884;SDS011;10602;48.000;9.654;2023-08-12T03:25:12;7.37;;;5.30;;
20884;SDS011;10602;48.000;9.654;2023-08-12T03:27:41;7.60;;;4.93;;
20884;SDS011;10602;48.000;9.654;2023-08-12T03:30:12;5.40;;;4.53;;
20884;SDS011;10602;48.000;9.654;2023-08-12T03:32:39;5.50;;;4.90;;
20884;SDS011;10602;48.000;9.654;2023-08-12T03:35:07;6.90;;;4.77;;
20884;SDS011;10602;48.000;9.654;2023-08-12T03:37:35;5.93;;;5.33;;
20884;SDS011;10602;48.000;9.654;2023-08-12T03:40:02;6.37;;;5.00;;
20884;SDS011;10602;48.000;9.654;2023-08-12T03:42:33;5.73;;;4.67;;
20884;SDS011;10602;48.000;9.654;2023-08-12T03:45:01;5.30;;;4.80;;
20884;SDS011;10602;48.000;9.654;2023-08-12T03:47:30;6.83;;;4.80;;
20884;SDS011;10602;48.000;9.654;2023-08-12T03:50:02;5.37;;;4.87;;
20884;SDS011;10602;48.000;9.654;2023-08-12T03:52:31;5.27;;;4.77;;
20884;SDS011;10602;48.000;9.654;2023-08-12T03:54:58;6.13;;;4.90;;
20884;SDS011;10602;48.000;9.654;2023-08-12T03:57:28;6.23;;;4.83;;
20884;SDS011;10602;48.000;9.654;2023-08-12T03:59:55;5.40;;;4.90;;
20884;SDS011;10602;48.000;9.654;2023-08-12T04:02:23;5.20;;;4.70;;
20884;SDS011;10602;48.000;9.654;2023-08-12T04:04:51;6.00;;;5.00;;
20884;SDS011;10602;48.000;9.654;2023-08-12T04:07:18;5.60;;;5.00;;
20884;SDS011;10602;48.000;9.654;2023-08-12T04:09:46;6.27;;;5.37;;
20884;SDS011;10602;48.000;9.654;2023-08-12T04:12:14;6.20;;;5.20;;
20884;SDS011;10602;48.000;9.654;2023-08-12T04:14:42;5.63;;;5.03;;
20884;SDS011;10602;48.000;9.654;2023-08-12T04:17:11;5.33;;;4.83;;
20884;SDS011;10602;48.000;9.654;2023-08-12T04:19:44;6.77;;;4.73;;
20884;SDS011;10602;48.000;9.654;2023-08-12T04:22:09;6.53;;;4.90;;
20884;SDS011;10602;48.000;9.654;2023-08-12T04:24:37;5.37;;;4.87;;
20884;SDS011;10602;48.000;9.654;2023-08-12T04:27:06;5.33;;;4.53;;
20884;SDS011;10602;48.000;9.654;2023-08-12T04:29:35;4.63;;;3.73;;
20884;SDS011;10602;48.000;9.654;2023-08-12T04:32:03;5.40;;;4.13;;
20884;SDS011;10602;48.000;9.654;2023-08-12T04:34:31;5.67;;;4.50;;
20884;SDS011;10602;48.000;9.654;2023-08-12T04:36:58;5.00;;;4.50;;
20884;SDS011;10602;48.000;9.654;2023-08-12T04:39:26;4.47;;;4.03;;
20884;SDS011;10602;48.000;9.654;2023-08-12T04:41:53;6.20;;;4.53;;
20884;SDS011;10602;48.000;9.654;2023-08-12T04:44:21;7.37;;;4.37;;
20884;SDS011;10602;48.000;9.654;2023-08-12T04:46:48;6.40;;;4.47;;
20884;SDS011;10602;48.000;9.654;2023-08-12T04:49:16;4.83;;;4.33;;
20884;SDS011;10602;48.000;9.654;2023-08-12T04:51:43;5.93;;;5.10;;
20884;SDS011;10602;48.000;9.654;2023-08-12T04:54:12;5.63;;;4.17;;
20884;SDS011;10602;48.000;9.654;2023-08-12T04:56:42;5.90;;;4.70;;
20884;SDS011;10602;48.000;9.654;2023-08-12T04:59:10;5.23;;;4.47;;
20884;SDS011;10602;48.000;9.654;2023-08-12T05:01:38;5.73;;;4.60;;
20884;SDS011;10602;48.000;9.654;2023-08-12T05:04:05;5.53;;;4.30;;
20884;SDS011;10602;48.000;9.654;2023-08-12T05:06:33;7.30;;;4.70;;
20884;SDS011;10602;48.000;9.654;2023-08-12T05:09:00;4.47;;;4.03;;
20884;SDS011;10602;48.000;9.654;2023-08-12T05:11:28;4.50;;;4.10;;
20884;SDS011;10602;48.000;9.654;2023-08-12T05:13:57;5.07;;;4.53;;
20884;SDS011;10602;48.000;9.654;2023-08-12T05:16:25;7.40;;;5.17;;
20884;SDS011;10602;48.000;9.654;2023-08-12T05:18:53;5.40;;;4.90;;
20884;SDS011;10602;48.000;9.654;2023-08-12T05:21:20;5.97;;;4.90;;
20884;SDS011;10602;48.000;9.654;2023-08-12T05:23:48;5.60;;;4.97;;
20884;SDS011;10602;48.000;9.654;2023-08-12T05:26:16;5.33;;;4.70;;
20884;SDS011;10602;48.000;9.654;2023-08-12T05:28:44;5.67;;;4.97;;
20884;SDS011;10602;48.000;9.654;2023-08-12T05:31:11;5.87;;;5.27;;
20884;SDS011;10602;48.000;9.654;2023-08-12T05:33:39;6.53;;;4.80;;
20884;SDS011;10602;48.000;9.654;2023-08-12T05:36:06;8.00;;;5.13;;
20884;SDS011;10602;48.000;9.654;2023-08-12T05:38:35;8.87;;;5.37;;
20884;SDS011;10602;48.000;9.654;2023-08-12T05:41:02;7.23;;;5.10;;
20884;SDS011;10602;48.000;9.654;2023-08-12T05:43:31;7.17;;;4.90;;
20884;SDS011;10602;48.000;9.654;2023-08-12T05:45:59;9.47;;;5.00;;
20884;SDS011;10602;48.000;9.654;2023-08-12T05:48:28;5.00;;;4.33;;
20884;SDS011;10602;48.000;9.654;2023-08-12T05:50:59;5.10;;;4.60;;
20884;SDS011;10602;48.000;9.654;2023-08-12T05:53:26;4.80;;;4.40;;
20884;SDS011;10602;48.000;9.654;2023-08-12T05:55:54;5.70;;;4.90;;
20884;SDS011;10602;48.000;9.654;2023-08-12T05:58:21;6.13;;;5.03;;
20884;SDS011;10602;48.000;9.654;2023-08-12T06:00:49;5.53;;;4.33;;
20884;SDS011;10602;48.000;9.654;2023-08-12T06:03:17;4.87;;;4.20;;
20884;SDS011;10602;48.000;9.654;2023-08-12T06:05:45;5.60;;;4.70;;
20884;SDS011;10602;48.000;9.654;2023-08-12T06:08:13;5.23;;;4.70;;
20884;SDS011;10602;48.000;9.654;2023-08-12T06:10:41;5.43;;;4.80;;
20884;SDS011;10602;48.000;9.654;2023-08-12T06:13:09;5.63;;;5.10;;
20884;SDS011;10602;48.000;9.654;2023-08-12T06:15:36;7.23;;;5.73;;
20884;SDS011;10602;48.000;9.654;2023-08-12T06:18:04;5.17;;;4.67;;
20884;SDS011;10602;48.000;9.654;2023-08-12T06:20:33;6.77;;;4.60;;
20884;SDS011;10602;48.000;9.654;2023-08-12T06:23:01;4.73;;;4.33;;
20884;SDS011;10602;48.000;9.654;2023-08-12T06:25:29;4.83;;;4.40;;
20884;SDS011;10602;48.000;9.654;2023-08-12T06:27:56;5.63;;;5.10;;
20884;SDS011;10602;48.000;9.654;2023-08-12T06:30:24;5.20;;;4.43;;
20884;SDS011;10602;48.000;9.654;2023-08-12T06:32:52;5.50;;;4.67;;
20884;SDS011;10602;48.000;9.654;2023-08-12T06:35:20;5.47;;;4.40;;
20884;SDS011;10602;48.000;9.654;2023-08-12T06:37:50;5.47;;;4.20;;
20884;SDS011;10602;48.000;9.654;2023-08-12T06:40:19;5.20;;;4.10;;
20884;SDS011;10602;48.000;9.654;2023-08-12T06:42:50;5.77;;;4.63;;
20884;SDS011;10602;48.000;9.654;2023-08-12T06:45:32;5.77;;;4.77;;
20884;SDS011;10602;48.000;9.654;2023-08-12T06:48:02;6.40;;;4.90;;
20884;SDS011;10602;48.000;9.654;2023-08-12T06:50:36;6.03;;;4.63;;
20884;SDS011;10602;48.000;9.654;2023-08-12T06:53:12;5.70;;;4.77;;
20884;SDS011;10602;48.000;9.654;2023-08-12T06:55:44;6.10;;;5.20;;
20884;SDS011;10602;48.000;9.654;2023-08-12T06:58:13;6.50;;;5.03;;
20884;SDS011;10602;48.000;9.654;2023-08-12T07:00:44;6.10;;;5.23;;
20884;SDS011;10602;48.000;9.654;2023-08-12T07:03:13;5.10;;;4.60;;
20884;SDS011;10602;48.000;9.654;2023-08-12T07:05:41;6.07;;;5.00;;
20884;SDS011;10602;48.000;9.654;2023-08-12T07:08:10;6.47;;;5.40;;
20884;SDS011;10602;48.000;9.654;2023-08-12T07:10:38;6.27;;;4.93;;
20884;SDS011;10602;48.000;9.654;2023-08-12T07:13:06;5.57;;;4.70;;
20884;SDS011;10602;48.000;9.654;2023-08-12T07:15:33;5.10;;;4.50;;
20884;SDS011;10602;48.000;9.654;2023-08-12T07:18:01;5.33;;;4.83;;
20884;SDS011;10602;48.000;9.654;2023-08-12T07:20:31;5.47;;;4.97;;
20884;SDS011;10602;48.000;9.654;2023-08-12T07:22:59;6.77;;;4.57;;
20884;SDS011;10602;48.000;9.654;2023-08-12T07:25:26;5.63;;;4.60;;
20884;SDS011;10602;48.000;9.654;2023-08-12T07:27:54;5.10;;;4.60;;
20884;SDS011;10602;48.000;9.654;2023-08-12T07:30:21;5.07;;;4.40;;
20884;SDS011;10602;48.000;9.654;2023-08-12T07:32:49;5.57;;;5.03;;
20884;SDS011;10602;48.000;9.654;2023-08-12T07:35:16;4.90;;;4.40;;
20884;SDS011;10602;48.000;9.654;2023-08-12T07:37:44;6.63;;;4.37;;
20884;SDS011;10602;48.000;9.654;2023-08-12T07:40:12;6.53;;;4.73;;
20884;SDS011;10602;48.000;9.654;2023-08-12T07:42:39;5.60;;;4.83;;
20884;SDS011;10602;48.000;9.654;2023-08-12T07:45:07;6.10;;;4.33;;
20884;SDS011;10602;48.000;9.654;2023-08-12T07:47:35;6.80;;;4.73;;
20884;SDS011;10602;48.000;9.654;2023-08-12T07:50:03;5.87;;;4.60;;
20884;SDS011;10602;48.000;9.654;2023-08-12T07:52:31;5.03;;;4.53;;
20884;SDS011;10602;48.000;9.654;2023-08-12T07:54:58;5.27;;;4.77;;
20884;SDS011;10602;48.000;9.654;2023-08-12T07:57:26;6.07;;;4.77;;
20884;SDS011;10602;48.000;9.654;2023-08-12T07:59:54;5.37;;;4.30;;
20884;SDS011;10602;48.000;9.654;2023-08-12T08:02:21;4.97;;;4.57;;
20884;SDS011;10602;48.000;9.654;2023-08-12T08:04:49;5.17;;;4.67;;
20884;SDS011;10602;48.000;9.654;2023-08-12T08:07:16;7.30;;;4.93;;
20884;SDS011;10602;48.000;9.654;2023-08-12T08:09:44;5.30;;;4.43;;
20884;SDS011;10602;48.000;9.654;2023-08-12T08:12:11;5.40;;;4.70;;
20884;SDS011;10602;48.000;9.654;2023-08-12T08:14:42;6.43;;;4.70;;
20884;SDS011;10602;48.000;9.654;2023-08-12T08:17:09;5.10;;;4.60;;
20884;SDS011;10602;48.000;9.654;2023-08-12T08:19:37;5.30;;;4.47;;
20884;SDS011;10602;48.000;9.654;2023-08-12T08:22:04;5.33;;;4.83;;
20884;SDS011;10602;48.000;9.654;2023-08-12T08:24:32;5.37;;;4.50;;
20884;SDS011;10602;48.000;9.654;2023-08-12T08:27:00;5.07;;;4.43;;
20884;SDS011;10602;48.000;9.654;2023-08-12T08:29:29;5.00;;;4.50;;
20884;SDS011;10602;48.000;9.654;2023-08-12T08:31:57;5.10;;;4.60;;
20884;SDS011;10602;48.000;9.654;2023-08-12T08:34:24;4.80;;;4.33;;
20884;SDS011;10602;48.000;9.654;2023-08-12T08:36:52;5.40;;;4.47;;
20884;SDS011;10602;48.000;9.654;2023-08-12T08:39:20;5.00;;;4.20;;
20884;SDS011;10602;48.000;9.654;2023-08-12T08:41:48;5.27;;;4.10;;
20884;SDS011;10602;48.000;9.654;2023-08-12T08:44:15;5.43;;;4.77;;
20884;SDS011;10602;48.000;9.654;2023-08-12T08:46:46;4.83;;;4.43;;
20884;SDS011;10602;48.000;9.654;2023-08-12T08:49:13;4.83;;;4.33;;
20884;SDS011;10602;48.000;9.654;2023-08-12T08:51:42;5.80;;;4.53;;
20884;SDS011;10602;48.000;9.654;2023-08-12T08:54:10;4.73;;;4.20;;
20884;SDS011;10602;48.000;9.654;2023-08-12T08:56:42;5.07;;;4.37;;
20884;SDS011;10602;48.000;9.654;2023-08-12T08:59:10;4.60;;;4.20;;
20884;SDS011;10602;48.000;9.654;2023-08-12T09:01:40;5.30;;;4.17;;
20884;SDS011;10602;48.000;9.654;2023-08-12T09:04:10;4.60;;;4.20;;
20884;SDS011;10602;48.000;9.654;2023-08-12T09:06:41;5.20;;;4.40;;
20884;SDS011;10602;48.000;9.654;2023-08-12T09:09:10;4.50;;;4.10;;
20884;SDS011;10602;48.000;9.654;2023-08-12T09:11:42;5.43;;;4.33;;
20884;SDS011;10602;48.000;9.654;2023-08-12T09:14:11;4.57;;;4.10;;
20884;SDS011;10602;48.000;9.654;2023-08-12T09:16:44;5.03;;;4.20;;
20884;SDS011;10602;48.000;9.654;2023-08-12T09:19:08;5.83;;;4.43;;
20884;SDS011;10602;48.000;9.654;2023-08-12T09:21:35;4.97;;;4.03;;
20884;SDS011;10602;48.000;9.654;2023-08-12T09:24:04;5.00;;;4.37;;
20884;SDS011;10602;48.000;9.654;2023-08-12T09:26:31;5.80;;;4.40;;
20884;SDS011;10602;48.000;9.654;2023-08-12T09:29:00;4.77;;;4.17;;
20884;SDS011;10602;48.000;9.654;2023-08-12T09:31:30;5.80;;;4.10;;
20884;SDS011;10602;48.000;9.654;2023-08-12T09:34:05;4.63;;;4.00;;
20884;SDS011;10602;48.000;9.654;2023-08-12T09:36:33;7.93;;;4.63;;
20884;SDS011;10602;48.000;9.654;2023-08-12T09:39:15;5.30;;;4.63;;
20884;SDS011;10602;48.000;9.654;2023-08-12T09:41:59;5.20;;;4.70;;
20884;SDS011;10602;48.000;9.654;2023-08-12T09:44:34;5.67;;;4.77;;
20884;SDS011;10602;48.000;9.654;2023-08-12T09:47:20;6.43;;;4.70;;
20884;SDS011;10602;48.000;9.654;2023-08-12T09:49:52;5.30;;;4.90;;
20884;SDS011;10602;48.000;9.654;2023-08-12T09:52:25;6.00;;;4.80;;
20884;SDS011;10602;48.000;9.654;2023-08-12T09:54:57;4.70;;;4.30;;
20884;SDS011;10602;48.000;9.654;2023-08-12T09:57:26;6.30;;;4.50;;
20884;SDS011;10602;48.000;9.654;2023-08-12T09:59:56;4.97;;;4.50;;
20884;SDS011;10602;48.000;9.654;2023-08-12T10:02:24;5.97;;;4.53;;
20884;SDS011;10602;48.000;9.654;2023-08-12T10:04:53;5.03;;;4.53;;
20884;SDS011;10602;48.000;9.654;2023-08-12T10:07:23;5.53;;;4.57;;
20884;SDS011;10602;48.000;9.654;2023-08-12T10:09:51;7.23;;;4.60;;
20884;SDS011;10602;48.000;9.654;2023-08-12T10:12:20;4.90;;;4.20;;
20884;SDS011;10602;48.000;9.654;2023-08-12T10:14:48;5.30;;;4.30;;
20884;SDS011;10602;48.000;9.654;2023-08-12T10:17:16;6.27;;;5.00;;
20884;SDS011;10602;48.000;9.654;2023-08-12T10:19:45;5.50;;;4.70;;
20884;SDS011;10602;48.000;9.654;2023-08-12T10:22:13;5.03;;;4.40;;
20884;SDS011;10602;48.000;9.654;2023-08-12T10:24:42;4.77;;;4.37;;
20884;SDS011;10602;48.000;9.654;2023-08-12T10:27:11;6.47;;;4.90;;
20884;SDS011;10602;48.000;9.654;2023-08-12T10:29:42;5.70;;;4.60;;
20884;SDS011;10602;48.000;9.654;2023-08-12T10:32:09;6.10;;;3.83;;
20884;SDS011;10602;48.000;9.654;2023-08-12T10:34:39;4.30;;;3.90;;
20884;SDS011;10602;48.000;9.654;2023-08-12T10:37:09;5.47;;;3.70;;
20884;SDS011;10602;48.000;9.654;2023-08-12T10:39:37;5.07;;;4.07;;
20884;SDS011;10602;48.000;9.654;2023-08-12T10:42:05;4.47;;;3.57;;
20884;SDS011;10602;48.000;9.654;2023-08-12T10:44:39;4.60;;;4.00;;
20884;SDS011;10602;48.000;9.654;2023-08-12T10:47:17;4.10;;;3.77;;
20884;SDS011;10602;48.000;9.654;2023-08-12T10:49:48;3.83;;;3.50;;
20884;SDS011;10602;48.000;9.654;2023-08-12T10:52:28;4.20;;;3.80;;
20884;SDS011;10602;48.000;9.654;2023-08-12T10:57:49;4.53;;;3.40;;
20884;SDS011;10602;48.000;9.654;2023-08-12T11:00:24;4.93;;;3.23;;
20884;SDS011;10602;48.000;9.654;2023-08-12T11:02:53;3.80;;;3.50;;
20884;SDS011;10602;48.000;9.654;2023-08-12T11:05:22;6.53;;;3.43;;
20884;SDS011;10602;48.000;9.654;2023-08-12T11:07:57;3.93;;;3.63;;
20884;SDS011;10602;48.000;9.654;2023-08-12T11:10:29;3.80;;;3.50;;
20884;SDS011;10602;48.000;9.654;2023-08-12T11:13:00;3.70;;;3.30;;
20884;SDS011;10602;48.000;9.654;2023-08-12T11:15:29;4.53;;;3.57;;
20884;SDS011;10602;48.000;9.654;2023-08-12T11:18:02;5.47;;;3.30;;
20884;SDS011;10602;48.000;9.654;2023-08-12T11:20:32;3.57;;;3.00;;
20884;SDS011;10602;48.000;9.654;2023-08-12T11:23:00;4.90;;;3.60;;
20884;SDS011;10602;48.000;9.654;2023-08-12T11:25:29;3.80;;;3.50;;
20884;SDS011;10602;48.000;9.654;2023-08-12T11:27:58;3.60;;;3.07;;
20884;SDS011;10602;48.000;9.654;2023-08-12T11:30:26;3.83;;;3.20;;
20884;SDS011;10602;48.000;9.654;2023-08-12T11:32:54;4.17;;;3.57;;
20884;SDS011;10602;48.000;9.654;2023-08-12T11:35:23;6.43;;;3.50;;
20884;SDS011;10602;48.000;9.654;2023-08-12T11:37:51;5.40;;;3.77;;
20884;SDS011;10602;48.000;9.654;2023-08-12T11:40:22;3.67;;;3.33;;
20884;SDS011;10602;48.000;9.654;2023-08-12T11:42:51;4.77;;;3.57;;
20884;SDS011;10602;48.000;9.654;2023-08-12T11:45:20;5.17;;;3.77;;
20884;SDS011;10602;48.000;9.654;2023-08-12T11:47:52;4.93;;;4.20;;
20884;SDS011;10602;48.000;9.654;2023-08-12T11:50:26;4.73;;;3.63;;
20884;SDS011;10602;48.000;9.654;2023-08-12T11:52:50;4.53;;;4.13;;
20884;SDS011;10602;48.000;9.654;2023-08-12T11:55:19;4.20;;;3.80;;
20884;SDS011;10602;48.000;9.654;2023-08-12T11:57:47;5.13;;;3.70;;
20884;SDS011;10602;48.000;9.654;2023-08-12T12:00:14;4.27;;;3.87;;
20884;SDS011;10602;48.000;9.654;2023-08-12T12:05:18;6.00;;;4.30;;
20884;SDS011;10602;48.000;9.654;2023-08-12T12:07:47;4.30;;;3.90;;
20884;SDS011;10602;48.000;9.654;2023-08-12T12:10:19;4.07;;;3.77;;
20884;SDS011;10602;48.000;9.654;2023-08-12T12:12:48;4.43;;;3.53;;
20884;SDS011;10602;48.000;9.654;2023-08-12T12:15:15;9.00;;;4.53;;
20884;SDS011;10602;48.000;9.654;2023-08-12T12:17:45;4.20;;;3.70;;
20884;SDS011;10602;48.000;9.654;2023-08-12T12:20:13;4.30;;;3.90;;
20884;SDS011;10602;48.000;9.654;2023-08-12T12:22:41;4.80;;;4.10;;
20884;SDS011;10602;48.000;9.654;2023-08-12T12:25:14;4.90;;;3.93;;
20884;SDS011;10602;48.000;9.654;2023-08-12T12:27:45;6.80;;;3.67;;
20884;SDS011;10602;48.000;9.654;2023-08-12T12:30:13;7.57;;;4.07;;
20884;SDS011;10602;48.000;9.654;2023-08-12T12:32:42;6.20;;;3.80;;
20884;SDS011;10602;48.000;9.654;2023-08-12T12:35:10;4.10;;;3.70;;
20884;SDS011;10602;48.000;9.654;2023-08-12T12:37:38;6.07;;;4.17;;
20884;SDS011;10602;48.000;9.654;2023-08-12T12:40:08;5.40;;;4.30;;
20884;SDS011;10602;48.000;9.654;2023-08-12T12:42:36;4.03;;;3.63;;
20884;SDS011;10602;48.000;9.654;2023-08-12T12:45:04;5.07;;;3.70;;
20884;SDS011;10602;48.000;9.654;2023-08-12T12:47:32;4.47;;;4.07;;
20884;SDS011;10602;48.000;9.654;2023-08-12T12:50:00;4.27;;;3.83;;
20884;SDS011;10602;48.000;9.654;2023-08-12T12:52:27;6.03;;;3.90;;
20884;SDS011;10602;48.000;9.654;2023-08-12T12:54:55;4.63;;;4.10;;
20884;SDS011;10602;48.000;9.654;2023-08-12T12:57:23;4.87;;;3.90;;
20884;SDS011;10602;48.000;9.654;2023-08-12T12:59:50;8.97;;;6.77;;
20884;SDS011;10602;48.000;9.654;2023-08-12T13:02:18;6.43;;;4.40;;
20884;SDS011;10602;48.000;9.654;2023-08-12T13:04:46;4.20;;;3.60;;
20884;SDS011;10602;48.000;9.654;2023-08-12T13:07:15;4.63;;;3.80;;
20884;SDS011;10602;48.000;9.654;2023-08-12T13:09:43;4.87;;;3.67;;
20884;SDS011;10602;48.000;9.654;2023-08-12T13:12:10;4.50;;;3.43;;
20884;SDS011;10602;48.000;9.654;2023-08-12T13:14:38;6.33;;;3.80;;
20884;SDS011;10602;48.000;9.654;2023-08-12T13:17:07;4.80;;;4.17;;
20884;SDS011;10602;48.000;9.654;2023-08-12T13:19:35;5.30;;;4.10;;
20884;SDS011;10602;48.000;9.654;2023-08-12T13:22:02;4.07;;;3.57;;
20884;SDS011;10602;48.000;9.654;2023-08-12T13:24:35;5.60;;;4.17;;
20884;SDS011;10602;48.000;9.654;2023-08-12T13:26:59;7.93;;;5.13;;
20884;SDS011;10602;48.000;9.654;2023-08-12T13:29:31;5.60;;;4.03;;
20884;SDS011;10602;48.000;9.654;2023-08-12T13:31:57;8.67;;;4.20;;
20884;SDS011;10602;48.000;9.654;2023-08-12T13:34:25;5.20;;;3.90;;
20884;SDS011;10602;48.000;9.654;2023-08-12T13:36:52;4.90;;;3.57;;
20884;SDS011;10602;48.000;9.654;2023-08-12T13:39:20;4.63;;;3.80;;
20884;SDS011;10602;48.000;9.654;2023-08-12T13:41:48;6.23;;;3.43;;
20884;SDS011;10602;48.000;9.654;2023-08-12T13:44:15;4.37;;;3.93;;
20884;SDS011;10602;48.000;9.654;2023-08-12T13:46:43;4.93;;;3.43;;
20884;SDS011;10602;48.000;9.654;2023-08-12T13:49:11;3.47;;;3.10;;
20884;SDS011;10602;48.000;9.654;2023-08-12T13:51:38;4.47;;;3.70;;
20884;SDS011;10602;48.000;9.654;2023-08-12T13:54:06;5.23;;;4.07;;
20884;SDS011;10602;48.000;9.654;2023-08-12T13:56:38;3.83;;;3.10;;
20884;SDS011;10602;48.000;9.654;2023-08-12T18:13:00;6.70;;;3.90;;
20884;SDS011;10602;48.000;9.654;2023-08-12T18:15:28;7.93;;;4.13;;
20884;SDS011;10602;48.000;9.654;2023-08-12T18:17:55;7.83;;;4.20;;
20884;SDS011;10602;48.000;9.654;2023-08-12T18:20:23;8.43;;;4.03;;
20884;SDS011;10602;48.000;9.654;2023-08-12T18:22:51;5.53;;;4.07;;
20884;SDS011;10602;48.000;9.654;2023-08-12T18:25:19;8.60;;;4.27;;
20884;SDS011;10602;48.000;9.654;2023-08-12T18:27:47;4.70;;;4.00;;
20884;SDS011;10602;48.000;9.654;2023-08-12T18:30:15;8.40;;;4.00;;
20884;SDS011;10602;48.000;9.654;2023-08-12T18:32:42;6.03;;;3.70;;
20884;SDS011;10602;48.000;9.654;2023-08-12T18:35:10;6.63;;;4.27;;
20884;SDS011;10602;48.000;9.654;2023-08-12T18:37:38;4.20;;;3.80;;
20884;SDS011;10602;48.000;9.654;2023-08-12T18:40:06;11.97;;;4.20;;
20884;SDS011;10602;48.000;9.654;2023-08-12T18:42:35;7.17;;;3.70;;
20884;SDS011;10602;48.000;9.654;2023-08-12T18:45:03;6.10;;;4.00;;
20884;SDS011;10602;48.000;9.654;2023-08-12T18:47:31;4.43;;;4.00;;
20884;SDS011;10602;48.000;9.654;2023-08-12T18:49:59;6.07;;;3.90;;
20884;SDS011;10602;48.000;9.654;2023-08-12T18:52:28;5.63;;;4.00;;
20884;SDS011;10602;48.000;9.654;2023-08-12T18:54:57;4.87;;;4.00;;
20884;SDS011;10602;48.000;9.654;2023-08-12T18:57:25;4.20;;;3.73;;
20884;SDS011;10602;48.000;9.654;2023-08-12T18:59:54;5.27;;;3.93;;
20884;SDS011;10602;48.000;9.654;2023-08-12T19:02:22;8.23;;;4.20;;
20884;SDS011;10602;48.000;9.654;2023-08-12T19:04:49;7.63;;;3.93;;
20884;SDS011;10602;48.000;9.654;2023-08-12T19:07:17;6.60;;;4.20;;
20884;SDS011;10602;48.000;9.654;2023-08-12T19:09:44;7.73;;;3.77;;
20884;SDS011;10602;48.000;9.654;2023-08-12T19:12:12;6.90;;;3.83;;
20884;SDS011;10602;48.000;9.654;2023-08-12T19:14:40;4.60;;;4.07;;
20884;SDS011;10602;48.000;9.654;2023-08-12T19:17:07;4.93;;;4.43;;
20884;SDS011;10602;48.000;9.654;2023-08-12T19:19:37;10.37;;;4.97;;
20884;SDS011;10602;48.000;9.654;2023-08-12T19:22:05;5.40;;;4.77;;
20884;SDS011;10602;48.000;9.654;2023-08-12T19:24:33;6.07;;;4.57;;
20884;SDS011;10602;48.000;9.654;2023-08-12T19:27:03;5.77;;;4.63;;
20884;SDS011;10602;48.000;9.654;2023-08-12T19:29:32;5.63;;;4.67;;
20884;SDS011;10602;48.000;9.654;2023-08-12T19:31:59;5.93;;;5.17;;
20884;SDS011;10602;48.000;9.654;2023-08-12T19:34:27;6.17;;;3.60;;
20884;SDS011;10602;48.000;9.654;2023-08-12T19:36:55;4.13;;;3.63;;
20884;SDS011;10602;48.000;9.654;2023-08-12T19:39:24;4.33;;;3.07;;
20884;SDS011;10602;48.000;9.654;2023-08-12T19:41:51;4.57;;;3.60;;
20884;SDS011;10602;48.000;9.654;2023-08-12T19:44:19;4.33;;;3.33;;
20884;SDS011;10602;48.000;9.654;2023-08-12T19:46:49;5.40;;;3.90;;
20884;SDS011;10602;48.000;9.654;2023-08-12T19:49:16;4.23;;;2.90;;
20884;SDS011;10602;48.000;9.654;2023-08-12T19:51:44;3.70;;;3.00;;
20884;SDS011;10602;48.000;9.654;2023-08-12T19:54:12;2.70;;;2.50;;
20884;SDS011;10602;48.000;9.654;2023-08-12T19:56:39;3.27;;;2.97;;
20884;SDS011;10602;48.000;9.654;2023-08-12T19:59:07;3.00;;;2.70;;
20884;SDS011;10602;48.000;9.654;2023-08-12T20:01:34;3.57;;;2.60;;
20884;SDS011;10602;48.000;9.654;2023-08-12T20:04:07;3.53;;;2.60;;
20884;SDS011;10602;48.000;9.654;2023-08-12T20:06:31;4.47;;;2.70;;
20884;SDS011;10602;48.000;9.654;2023-08-12T20:09:01;2.70;;;2.50;;
20884;SDS011;10602;48.000;9.654;2023-08-12T20:11:28;3.43;;;2.90;;
20884;SDS011;10602;48.000;9.654;2023-08-12T20:13:59;7.30;;;5.47;;
20884;SDS011;10602;48.000;9.654;2023-08-12T20:16:26;3.77;;;3.20;;
20884;SDS011;10602;48.000;9.654;2023-08-12T20:18:54;6.03;;;3.97;;
20884;SDS011;10602;48.000;9.654;2023-08-12T20:21:21;3.47;;;2.50;;
20884;SDS011;10602;48.000;9.654;2023-08-12T20:23:49;3.67;;;2.50;;
20884;SDS011;10602;48.000;9.654;2023-08-12T20:26:16;4.40;;;2.53;;
20884;SDS011;10602;48.000;9.654;2023-08-12T20:28:44;2.73;;;2.43;;
20884;SDS011;10602;48.000;9.654;2023-08-12T20:31:12;3.27;;;2.57;;
20884;SDS011;10602;48.000;9.654;2023-08-12T20:33:39;2.93;;;2.60;;
20884;SDS011;10602;48.000;9.654;2023-08-12T20:36:07;2.87;;;2.53;;
20884;SDS011;10602;48.000;9.654;2023-08-12T20:38:34;6.00;;;4.50;;
20884;SDS011;10602;48.000;9.654;2023-08-12T20:41:02;7.17;;;5.17;;
20884;SDS011;10602;48.000;9.654;2023-08-12T20:43:29;5.13;;;3.67;;
20884;SDS011;10602;48.000;9.654;2023-08-12T20:45:57;3.60;;;2.60;;
20884;SDS011;10602;48.000;9.654;2023-08-12T20:48:33;3.10;;;2.30;;
20884;SDS011;10602;48.000;9.654;2023-08-12T20:51:01;2.70;;;2.33;;
20884;SDS011;10602;48.000;9.654;2023-08-12T20:53:28;2.97;;;2.10;;
20884;SDS011;10602;48.000;9.654;2023-08-12T20:55:58;2.40;;;1.97;;
20884;SDS011;10602;48.000;9.654;2023-08-12T20:58:26;2.40;;;2.20;;
20884;SDS011;10602;48.000;9.654;2023-08-12T21:00:56;2.83;;;2.20;;
20884;SDS011;10602;48.000;9.654;2023-08-12T21:03:24;2.17;;;1.90;;
20884;SDS011;10602;48.000;9.654;2023-08-12T21:05:51;2.40;;;2.20;;
20884;SDS011;10602;48.000;9.654;2023-08-12T21:08:19;2.70;;;2.20;;
20884;SDS011;10602;48.000;9.654;2023-08-12T21:10:53;3.40;;;3.10;;
20884;SDS011;10602;48.000;9.654;2023-08-12T21:13:21;3.67;;;2.20;;
20884;SDS011;10602;48.000;9.654;2023-08-12T21:15:48;2.30;;;2.10;;
20884;SDS011;10602;48.000;9.654;2023-08-12T21:18:16;2.83;;;2.10;;
20884;SDS011;10602;48.000;9.654;2023-08-12T21:20:43;4.07;;;2.20;;
20884;SDS011;10602;48.000;9.654;2023-08-12T21:23:11;3.73;;;2.13;;
20884;SDS011;10602;48.000;9.654;2023-08-12T21:25:39;4.03;;;2.17;;
20884;SDS011;10602;48.000;9.654;2023-08-12T21:28:06;4.03;;;2.33;;
20884;SDS011;10602;48.000;9.654;2023-08-12T21:30:34;2.60;;;2.27;;
20884;SDS011;10602;48.000;9.654;2023-08-12T21:33:01;3.13;;;2.03;;
20884;SDS011;10602;48.000;9.654;2023-08-12T21:35:29;3.37;;;2.40;;
20884;SDS011;10602;48.000;9.654;2023-08-12T21:37:56;2.67;;;2.43;;
20884;SDS011;10602;48.000;9.654;2023-08-12T21:40:24;3.03;;;2.70;;
20884;SDS011;10602;48.000;9.654;2023-08-12T21:42:52;4.60;;;3.83;;
20884;SDS011;10602;48.000;9.654;2023-08-12T21:45:20;2.93;;;2.60;;
20884;SDS011;10602;48.000;9.654;2023-08-12T21:47:47;3.90;;;2.77;;
20884;SDS011;10602;48.000;9.654;2023-08-12T21:50:15;3.43;;;2.57;;
20884;SDS011;10602;48.000;9.654;2023-08-12T21:52:42;5.07;;;2.80;;
20884;SDS011;10602;48.000;9.654;2023-08-12T21:55:10;5.57;;;3.43;;
20884;SDS011;10602;48.000;9.654;2023-08-12T21:57:39;3.83;;;3.20;;
20884;SDS011;10602;48.000;9.654;2023-08-12T22:00:07;3.23;;;2.87;;
20884;SDS011;10602;48.000;9.654;2023-08-12T22:02:36;3.77;;;2.70;;
20884;SDS011;10602;48.000;9.654;2023-08-12T22:05:04;3.50;;;3.20;;
20884;SDS011;10602;48.000;9.654;2023-08-12T22:07:32;3.53;;;2.80;;
20884;SDS011;10602;48.000;9.654;2023-08-12T22:09:59;6.33;;;2.97;;
20884;SDS011;10602;48.000;9.654;2023-08-12T22:12:27;3.70;;;2.93;;
20884;SDS011;10602;48.000;9.654;2023-08-12T22:14:55;3.47;;;3.13;;